Time;durP1;ratioP1;P1;durP2;ratioP2;P2;SDS_P1;SDS_P2;PMS_P1;PMS_P2;Temp;Humidity;BMP_temperature;BMP_pressure;BME280_temperature;BME280_humidity;BME280_pressure;Samples;Min_cycle;Max_cycle;Signal;HPM_P1;HPM_P2
2022/06/19 00:00:44;;;;;;;1.38;1.27;;;25.60;63.60;;;;;;5009088;28;20037;-22
2022/06/19 00:03:39;;;;;;;1.60;1.45;;;25.60;63.50;;;;;;5014741;28;20129;-23
2022/06/19 00:06:04;;;;;;;2.65;1.50;;;25.60;63.40;;;;;;5029161;28;20106;-22
2022/06/19 00:08:30;;;;;;;1.38;1.27;;;25.60;63.30;;;;;;5008389;28;20093;-22
2022/06/19 00:10:56;;;;;;;1.73;1.35;;;25.60;63.20;;;;;;5030890;28;20045;-22
2022/06/19 00:13:22;;;;;;;1.90;1.70;;;25.60;63.40;;;;;;5000440;28;20036;-21
2022/06/19 00:15:47;;;;;;;1.77;1.67;;;25.60;63.20;;;;;;5012042;28;20044;-22
2022/06/19 00:18:13;;;;;;;1.73;1.52;;;25.60;63.30;;;;;;5012265;28;20048;-21
2022/06/19 00:20:39;;;;;;;1.40;1.30;;;25.60;63.20;;;;;;5001133;28;20041;-21
2022/06/19 00:23:05;;;;;;;1.30;1.20;;;25.60;63.50;;;;;;5001967;28;20100;-21
2022/06/19 00:25:30;;;;;;;1.85;1.60;;;25.50;63.40;;;;;;5034881;28;20052;-21
2022/06/19 00:27:56;;;;;;;1.55;1.45;;;25.60;63.40;;;;;;5013808;28;20037;-21
2022/06/19 00:30:21;;;;;;;3.08;1.35;;;25.50;63.20;;;;;;5029591;28;20777;-21
2022/06/19 00:32:47;;;;;;;1.25;1.15;;;25.50;63.30;;;;;;5008285;28;20049;-22
2022/06/19 00:35:13;;;;;;;1.67;1.52;;;25.60;63.30;;;;;;5015323;28;20041;-22
2022/06/19 00:37:39;;;;;;;2.08;1.52;;;25.50;63.20;;;;;;5015010;28;20037;-21
2022/06/19 00:40:06;;;;;;;4.70;1.85;;;25.60;63.30;;;;;;5025133;28;20103;-22
2022/06/19 00:42:31;;;;;;;1.40;1.30;;;25.50;63.50;;;;;;5016459;28;20124;-21
2022/06/19 00:44:57;;;;;;;1.90;1.48;;;25.60;63.50;;;;;;5008337;28;20119;-22
2022/06/19 00:47:28;;;;;;;1.50;1.40;;;25.60;63.30;;;;;;5029304;28;20545;-22
2022/06/19 00:49:57;;;;;;;1.73;1.50;;;25.50;63.20;;;;;;5026968;28;20132;-21
2022/06/19 00:52:29;;;;;;;1.52;1.42;;;25.50;63.10;;;;;;5019434;28;20071;-21
2022/06/19 00:55:36;;;;;;;1.85;1.23;;;25.60;63.10;;;;;;5032457;28;20045;-22
2022/06/19 00:58:06;;;;;;;1.65;1.50;;;25.50;63.00;;;;;;5032853;28;20480;-21
2022/06/19 01:00:31;;;;;;;1.40;1.30;;;25.60;62.90;;;;;;5043046;28;20080;-22
2022/06/19 01:03:06;;;;;;;1.48;1.25;;;25.50;62.90;;;;;;5030041;28;20045;-22
2022/06/19 01:05:32;;;;;;;2.15;1.35;;;25.50;62.70;;;;;;5031550;28;20057;-21
2022/06/19 01:07:58;;;;;;;1.33;1.23;;;25.50;62.80;;;;;;5015947;28;20048;-21
2022/06/19 01:10:24;;;;;;;1.40;1.30;;;25.60;62.90;;;;;;5017393;28;20104;-24
2022/06/19 01:12:50;;;;;;;1.25;1.15;;;25.50;62.80;;;;;;5032049;28;20065;-21
2022/06/19 01:15:20;;;;;;;1.73;1.55;;;25.50;63.10;;;;;;5007574;28;20116;-20
2022/06/19 01:17:47;;;;;;;1.17;1.08;;;25.50;63.00;;;;;;5032848;28;20660;-23
2022/06/19 01:20:14;;;;;;;1.77;1.30;;;25.50;63.00;;;;;;5030455;28;20557;-22
2022/06/19 01:22:56;;;;;;;1.23;1.13;;;25.50;63.00;;;;;;5016649;28;20069;-21
2022/06/19 01:25:29;;;;;;;1.23;1.13;;;25.50;62.70;;;;;;5027857;28;20052;-22
2022/06/19 01:30:41;;;;;;;1.13;1.02;;;25.50;63.90;;;;;;5032694;28;20111;-21
2022/06/19 01:33:08;;;;;;;1.05;0.93;;;25.50;63.30;;;;;;5010894;28;20060;-21
2022/06/19 01:35:35;;;;;;;1.67;1.35;;;25.40;63.20;;;;;;5031798;28;20049;-22
2022/06/19 01:38:02;;;;;;;0.88;0.88;;;25.50;63.10;;;;;;5032772;28;20041;-22
2022/06/19 01:40:29;;;;;;;1.67;1.58;;;25.50;63.20;;;;;;5030790;28;20113;-21
2022/06/19 01:42:55;;;;;;;1.52;0.90;;;25.40;63.40;;;;;;5013950;28;20083;-22
2022/06/19 01:45:21;;;;;;;1.75;1.00;;;25.40;63.50;;;;;;5023290;28;20053;-21
2022/06/19 01:47:46;;;;;;;1.20;1.10;;;25.40;63.50;;;;;;5033119;28;20038;-22
2022/06/19 01:50:15;;;;;;;1.30;1.00;;;25.40;63.30;;;;;;5014743;28;20041;-21
2022/06/19 01:52:40;;;;;;;1.17;1.08;;;25.40;63.20;;;;;;5028145;28;20103;-21
2022/06/19 01:55:07;;;;;;;1.10;1.00;;;25.50;63.00;;;;;;5016586;28;20049;-22
2022/06/19 01:57:34;;;;;;;0.90;0.88;;;25.40;63.10;;;;;;5028172;28;20041;-22
2022/06/19 01:59:59;;;;;;;0.98;0.93;;;25.40;63.20;;;;;;5011670;28;20053;-21
2022/06/19 02:02:25;;;;;;;1.27;1.17;;;25.40;63.30;;;;;;4990658;28;20030;-21
2022/06/19 02:04:51;;;;;;;1.27;0.98;;;25.40;63.40;;;;;;5029816;28;20387;-21
2022/06/19 02:07:21;;;;;;;1.10;1.00;;;25.40;63.40;;;;;;5027983;28;20469;-21
2022/06/19 02:09:47;;;;;;;1.08;1.05;;;25.40;63.40;;;;;;5009880;28;20415;-21
2022/06/19 02:12:12;;;;;;;1.20;1.00;;;25.40;63.40;;;;;;5030537;28;20041;-21
2022/06/19 02:14:38;;;;;;;1.10;1.00;;;25.40;63.40;;;;;;4997216;28;20103;-22
2022/06/19 02:17:13;;;;;;;0.93;0.90;;;25.40;63.40;;;;;;5012338;28;20529;-21
2022/06/19 02:19:39;;;;;;;0.70;0.70;;;25.40;64.00;;;;;;5028364;28;20080;-21
2022/06/19 02:22:12;;;;;;;1.38;0.98;;;25.40;63.20;;;;;;5015999;28;20038;-21
2022/06/19 02:24:39;;;;;;;1.15;1.00;;;25.40;63.10;;;;;;5028271;28;20049;-22
2022/06/19 02:27:05;;;;;;;1.25;1.00;;;25.40;63.40;;;;;;5028405;28;20514;-21
2022/06/19 02:29:31;;;;;;;1.23;1.10;;;25.40;63.50;;;;;;5011419;28;20072;-21
2022/06/19 02:31:56;;;;;;;1.00;0.90;;;25.40;63.30;;;;;;5014944;28;20054;-21
2022/06/19 02:34:44;;;;;;;1.13;0.90;;;25.40;63.40;;;;;;5029285;28;20877;-21
2022/06/19 02:37:17;;;;;;;1.15;0.75;;;25.40;63.50;;;;;;5045042;28;21091;-22
2022/06/19 02:40:10;;;;;;;1.00;1.00;;;25.40;63.50;;;;;;5024964;28;20095;-22
2022/06/19 02:42:45;;;;;;;1.15;0.93;;;25.40;63.50;;;;;;5024997;28;20128;-21
2022/06/19 02:45:12;;;;;;;1.00;0.90;;;25.40;63.50;;;;;;5028702;28;20097;-21
2022/06/19 02:47:38;;;;;;;0.93;0.80;;;25.40;63.50;;;;;;5025803;28;20033;-21
2022/06/19 02:50:04;;;;;;;1.05;0.70;;;25.40;63.40;;;;;;5030194;28;20136;-21
2022/06/19 02:52:30;;;;;;;0.65;0.65;;;25.40;63.40;;;;;;5032824;28;20107;-22
2022/06/19 02:54:56;;;;;;;1.08;1.00;;;25.40;63.50;;;;;;4992713;28;20041;-22
2022/06/19 02:57:22;;;;;;;1.50;1.08;;;25.40;63.40;;;;;;4994531;28;20050;-22
2022/06/19 02:59:48;;;;;;;0.93;0.77;;;25.40;63.50;;;;;;5024247;28;20045;-25
2022/06/19 03:02:13;;;;;;;1.00;0.90;;;25.40;64.30;;;;;;5025159;28;20054;-23
2022/06/19 03:04:47;;;;;;;1.77;1.08;;;25.40;63.30;;;;;;5027242;28;20048;-24
2022/06/19 03:07:12;;;;;;;1.08;0.98;;;25.40;64.10;;;;;;5027911;28;20045;-24
2022/06/19 03:09:38;;;;;;;1.90;0.90;;;25.40;63.40;;;;;;4995693;28;20072;-25
2022/06/19 03:12:04;;;;;;;2.20;0.80;;;25.40;63.40;;;;;;5022881;28;20052;-24
2022/06/19 03:14:29;;;;;;;2.10;1.05;;;25.40;63.40;;;;;;5024767;28;20604;-21
2022/06/19 03:16:55;;;;;;;1.00;0.80;;;25.40;63.50;;;;;;5027172;28;20037;-21
2022/06/19 03:19:21;;;;;;;1.45;1.10;;;25.40;63.60;;;;;;5027095;28;20289;-21
2022/06/19 03:21:49;;;;;;;1.25;1.10;;;25.30;63.60;;;;;;5028108;28;20048;-23
2022/06/19 03:24:15;;;;;;;1.65;1.13;;;25.40;63.60;;;;;;5027655;28;20410;-21
2022/06/19 03:26:40;;;;;;;0.90;0.90;;;25.30;63.70;;;;;;5031778;28;20414;-21
2022/06/19 03:29:07;;;;;;;0.65;0.65;;;25.30;63.50;;;;;;5012453;28;20045;-21
2022/06/19 03:31:32;;;;;;;1.45;0.80;;;25.30;63.60;;;;;;5011897;28;20061;-21
2022/06/19 03:33:58;;;;;;;1.20;0.80;;;25.30;63.60;;;;;;5010395;28;20045;-22
2022/06/19 03:36:24;;;;;;;1.15;0.80;;;25.30;63.60;;;;;;5029961;28;20073;-22
2022/06/19 03:38:50;;;;;;;1.00;0.93;;;25.30;63.40;;;;;;5025139;28;20038;-21
2022/06/19 03:41:15;;;;;;;0.85;0.77;;;25.30;63.40;;;;;;5031815;28;20065;-22
2022/06/19 03:43:41;;;;;;;1.63;1.10;;;25.30;63.20;;;;;;4992114;28;20458;-21
2022/06/19 03:46:15;;;;;;;1.63;1.25;;;25.30;63.40;;;;;;5028509;28;20049;-21
2022/06/19 03:48:45;;;;;;;2.75;1.00;;;25.40;63.40;;;;;;5027126;28;20054;-22
2022/06/19 03:51:11;;;;;;;1.33;0.90;;;25.30;63.40;;;;;;5026699;28;20044;-21
2022/06/19 03:53:37;;;;;;;1.50;1.10;;;25.30;63.40;;;;;;5027821;28;20046;-21
2022/06/19 03:56:03;;;;;;;1.80;0.93;;;25.30;63.40;;;;;;5008561;28;20042;-21
2022/06/19 03:58:45;;;;;;;1.10;0.90;;;25.30;63.50;;;;;;4991618;28;20133;-22
2022/06/19 04:01:14;;;;;;;0.90;0.75;;;25.30;63.40;;;;;;5007726;28;20044;-22
2022/06/19 04:03:40;;;;;;;2.47;1.27;;;25.30;63.40;;;;;;5024258;28;20139;-22
2022/06/19 04:06:06;;;;;;;1.58;0.90;;;25.30;63.40;;;;;;5022329;28;20133;-21
2022/06/19 04:08:32;;;;;;;1.27;0.85;;;25.30;63.50;;;;;;5005787;28;20140;-21
2022/06/19 04:10:58;;;;;;;1.35;0.80;;;25.30;63.40;;;;;;4995742;28;20069;-21
2022/06/19 04:13:23;;;;;;;1.10;0.88;;;25.30;63.40;;;;;;5019991;28;20534;-26
2022/06/19 04:15:49;;;;;;;1.33;0.80;;;25.30;63.40;;;;;;5007588;28;20037;-22
2022/06/19 04:18:14;;;;;;;1.27;1.15;;;25.30;63.40;;;;;;5014179;28;20056;-22
2022/06/19 04:20:40;;;;;;;0.90;0.70;;;25.30;63.40;;;;;;5006253;28;20053;-21
2022/06/19 04:23:08;;;;;;;1.52;0.90;;;25.30;63.40;;;;;;5023267;28;20435;-22
2022/06/19 04:25:34;;;;;;;0.70;0.70;;;25.30;63.40;;;;;;5027810;28;20038;-22
2022/06/19 04:27:59;;;;;;;0.82;0.80;;;25.30;63.50;;;;;;5008020;28;20053;-21
2022/06/19 04:30:25;;;;;;;1.35;0.73;;;25.30;63.40;;;;;;5025140;28;20367;-22
2022/06/19 04:32:51;;;;;;;1.35;1.25;;;25.30;63.30;;;;;;5026545;28;20038;-21
2022/06/19 04:35:17;;;;;;;1.08;0.98;;;25.30;63.40;;;;;;5023291;28;20072;-22
2022/06/19 04:37:43;;;;;;;0.90;0.80;;;25.20;63.40;;;;;;5024761;28;20079;-22
2022/06/19 04:40:10;;;;;;;1.17;0.82;;;25.30;63.40;;;;;;5021841;28;20120;-22
2022/06/19 04:42:36;;;;;;;0.70;0.70;;;25.30;63.40;;;;;;5019335;28;20430;-21
2022/06/19 04:45:02;;;;;;;0.95;0.70;;;25.30;63.40;;;;;;5023381;28;20045;-21
2022/06/19 04:47:27;;;;;;;1.35;0.75;;;25.30;63.40;;;;;;5022923;28;20598;-21
2022/06/19 04:49:53;;;;;;;0.95;0.75;;;25.30;63.40;;;;;;5007557;28;20056;-23
2022/06/19 04:52:18;;;;;;;0.95;0.85;;;25.30;63.40;;;;;;4990406;28;20059;-21
2022/06/19 04:54:45;;;;;;;1.10;1.05;;;25.20;63.40;;;;;;5026300;28;20042;-21
2022/06/19 04:57:11;;;;;;;0.90;0.70;;;25.20;63.50;;;;;;5027870;28;20049;-23
2022/06/19 04:59:37;;;;;;;1.40;0.90;;;25.20;63.40;;;;;;5011864;28;20522;-22
2022/06/19 05:02:03;;;;;;;1.08;1.02;;;25.20;63.40;;;;;;5023839;28;20056;-22
2022/06/19 05:04:28;;;;;;;0.82;0.80;;;25.20;63.40;;;;;;5025095;28;20531;-21
2022/06/19 05:06:54;;;;;;;1.00;0.88;;;25.20;63.40;;;;;;5008930;28;20415;-22
2022/06/19 05:09:20;;;;;;;1.00;0.90;;;25.20;63.40;;;;;;4993367;28;20050;-21
2022/06/19 05:11:45;;;;;;;0.73;0.73;;;25.20;63.40;;;;;;5022459;28;20049;-22
2022/06/19 05:14:11;;;;;;;1.80;0.80;;;25.30;63.40;;;;;;5018333;28;20042;-22
2022/06/19 05:16:36;;;;;;;1.10;1.00;;;25.20;63.40;;;;;;5009332;28;20517;-21
2022/06/19 05:19:03;;;;;;;0.88;0.85;;;25.30;63.40;;;;;;5029357;28;20044;-22
2022/06/19 05:21:28;;;;;;;1.10;1.00;;;25.20;63.30;;;;;;5023414;28;20053;-22
2022/06/19 05:23:54;;;;;;;1.10;1.00;;;25.20;63.40;;;;;;5029786;28;20560;-22
2022/06/19 05:26:31;;;;;;;1.00;0.93;;;25.20;63.50;;;;;;5027079;28;20458;-21
2022/06/19 05:28:57;;;;;;;1.00;0.90;;;25.20;63.40;;;;;;5022878;28;20053;-24
2022/06/19 05:31:23;;;;;;;0.60;0.60;;;25.20;63.40;;;;;;5015104;28;20056;-21
2022/06/19 05:33:49;;;;;;;2.55;0.98;;;25.20;63.30;;;;;;5030378;28;20042;-21
2022/06/19 05:36:15;;;;;;;0.80;0.80;;;25.20;63.40;;;;;;5028770;28;20048;-21
2022/06/19 05:38:41;;;;;;;0.70;0.70;;;25.20;63.30;;;;;;5028146;28;20337;-22
2022/06/19 05:41:06;;;;;;;0.65;0.60;;;25.20;63.40;;;;;;5029029;28;20041;-22
2022/06/19 05:43:33;;;;;;;1.15;0.73;;;25.20;63.40;;;;;;5029980;28;20041;-21
2022/06/19 05:46:01;;;;;;;1.40;1.10;;;25.20;63.40;;;;;;5018033;28;20548;-22
2022/06/19 05:48:26;;;;;;;1.30;0.90;;;25.20;63.40;;;;;;5009079;28;20120;-22
2022/06/19 05:51:06;;;;;;;1.02;0.88;;;25.20;63.40;;;;;;5031157;28;20076;-23
2022/06/19 05:53:34;;;;;;;0.70;0.70;;;25.20;63.40;;;;;;5026248;28;20060;-21
2022/06/19 05:55:59;;;;;;;1.40;1.30;;;25.20;63.40;;;;;;5031857;28;20045;-21
2022/06/19 05:58:25;;;;;;;0.90;0.55;;;25.20;63.40;;;;;;5012012;28;20044;-21
2022/06/19 06:00:51;;;;;;;0.88;0.80;;;25.20;63.50;;;;;;5031053;28;20046;-22
2022/06/19 06:03:17;;;;;;;1.35;0.80;;;25.20;63.50;;;;;;5031836;28;20037;-22
2022/06/19 06:05:44;;;;;;;0.80;0.80;;;25.20;63.60;;;;;;5029787;28;20463;-22
2022/06/19 06:08:10;;;;;;;0.75;0.75;;;25.20;63.40;;;;;;5001430;28;20095;-22
2022/06/19 06:10:36;;;;;;;2.15;0.73;;;25.20;63.40;;;;;;5026044;28;20046;-22
2022/06/19 06:13:01;;;;;;;0.85;0.70;;;25.20;63.40;;;;;;5005681;28;20091;-22
2022/06/19 06:15:27;;;;;;;1.08;0.98;;;25.20;63.30;;;;;;5016008;28;20049;-22
2022/06/19 06:17:52;;;;;;;0.65;0.60;;;25.20;63.40;;;;;;4999518;28;20045;-21
2022/06/19 06:20:18;;;;;;;1.00;0.80;;;25.20;63.60;;;;;;5023331;28;20053;-21
2022/06/19 06:22:44;;;;;;;0.80;0.70;;;25.20;63.60;;;;;;5027361;28;20506;-22
2022/06/19 06:25:10;;;;;;;0.73;0.73;;;25.20;63.60;;;;;;5021137;28;20045;-21
2022/06/19 06:27:37;;;;;;;1.40;0.80;;;25.20;63.50;;;;;;5023806;28;20047;-21
2022/06/19 06:30:03;;;;;;;1.30;0.98;;;25.20;63.60;;;;;;5025406;28;20049;-23
2022/06/19 06:32:28;;;;;;;0.90;0.80;;;25.20;64.20;;;;;;4994373;28;20394;-21
2022/06/19 06:34:54;;;;;;;1.45;1.05;;;25.20;63.50;;;;;;5021299;28;20422;-21
2022/06/19 06:37:19;;;;;;;1.08;0.90;;;25.20;63.50;;;;;;5024149;28;20042;-22
2022/06/19 06:39:45;;;;;;;1.35;0.80;;;25.20;63.40;;;;;;5009758;28;20052;-22
2022/06/19 06:42:11;;;;;;;0.88;0.70;;;25.20;63.60;;;;;;5005266;28;20041;-21
2022/06/19 06:44:36;;;;;;;1.77;0.82;;;25.20;63.60;;;;;;5018831;28;20978;-21
2022/06/19 06:47:02;;;;;;;1.20;0.82;;;25.20;64.00;;;;;;5024040;28;20049;-23
2022/06/19 06:49:28;;;;;;;1.45;0.70;;;25.20;63.50;;;;;;4994296;28;20506;-22
2022/06/19 06:51:54;;;;;;;1.27;0.77;;;25.20;63.50;;;;;;5021242;28;20128;-22
2022/06/19 06:54:19;;;;;;;2.35;1.33;;;25.20;63.40;;;;;;5019900;28;20121;-21
2022/06/19 06:56:45;;;;;;;1.23;0.65;;;25.20;63.40;;;;;;5006446;28;20049;-21
2022/06/19 06:59:11;;;;;;;1.02;0.70;;;25.20;63.30;;;;;;5023932;28;20045;-21
2022/06/19 07:01:37;;;;;;;1.35;0.85;;;25.20;63.50;;;;;;5007898;28;20041;-21
2022/06/19 07:04:03;;;;;;;1.23;0.82;;;25.20;63.30;;;;;;5004246;28;20133;-22
2022/06/19 07:06:29;;;;;;;1.55;0.80;;;25.20;63.40;;;;;;5018357;28;20096;-21
2022/06/19 07:08:55;;;;;;;1.33;0.82;;;25.20;63.50;;;;;;5024191;28;20142;-22
2022/06/19 07:11:25;;;;;;;1.37;0.87;;;25.10;63.50;;;;;;4670276;28;9999858;-22
2022/06/19 07:13:51;;;;;;;1.00;0.60;;;25.10;63.30;;;;;;5018159;28;20383;-21
2022/06/19 07:16:16;;;;;;;1.33;0.80;;;25.10;63.60;;;;;;5019390;28;20129;-20
2022/06/19 07:18:42;;;;;;;0.95;0.70;;;25.10;64.00;;;;;;5016774;28;20053;-23
2022/06/19 07:21:10;;;;;;;1.42;0.90;;;25.00;64.40;;;;;;5021168;28;20042;-20
2022/06/19 07:23:36;;;;;;;1.83;1.23;;;25.10;65.30;;;;;;5000413;28;20430;-22
2022/06/19 07:26:02;;;;;;;7.05;1.33;;;25.00;65.00;;;;;;5016563;28;20041;-22
2022/06/19 07:28:28;;;;;;;3.25;0.93;;;24.90;64.80;;;;;;5018473;28;20045;-20
2022/06/19 07:30:54;;;;;;;1.92;1.02;;;25.00;64.30;;;;;;5018242;28;20045;-21
2022/06/19 07:33:20;;;;;;;1.10;0.95;;;24.90;64.00;;;;;;4995977;28;20052;-22
2022/06/19 07:35:46;;;;;;;2.42;1.27;;;24.90;64.10;;;;;;5023139;28;20064;-22
2022/06/19 07:38:12;;;;;;;4.53;0.98;;;24.90;64.40;;;;;;5025336;28;20053;-21
2022/06/19 07:40:37;;;;;;;2.95;1.13;;;24.90;64.70;;;;;;5017005;28;20049;-21
2022/06/19 07:43:06;;;;;;;2.05;0.98;;;24.80;64.10;;;;;;5020190;28;20076;-21
2022/06/19 07:45:32;;;;;;;1.48;1.00;;;24.90;64.20;;;;;;4989033;28;20057;-21
2022/06/19 07:50:42;;;;;;;1.80;1.23;;;24.90;64.00;;;;;;5025272;28;20528;-22
2022/06/19 07:53:08;;;;;;;1.77;1.05;;;24.90;63.60;;;;;;5012271;28;20467;-22
2022/06/19 07:55:33;;;;;;;1.48;0.80;;;24.90;63.40;;;;;;5005649;28;20123;-21
2022/06/19 07:58:00;;;;;;;1.48;1.00;;;24.90;63.70;;;;;;5017937;28;20500;-22
2022/06/19 08:00:31;;;;;;;3.28;1.60;;;24.90;63.20;;;;;;5018551;28;20061;-22
2022/06/19 08:02:57;;;;;;;3.22;1.17;;;24.80;63.40;;;;;;5009992;28;20526;-22
2022/06/19 08:05:25;;;;;;;1.67;1.00;;;24.80;63.30;;;;;;5002595;28;20546;-22
2022/06/19 08:07:52;;;;;;;2.60;1.50;;;24.80;63.40;;;;;;5018683;28;20410;-21
2022/06/19 08:10:32;;;;;;;4.93;1.17;;;24.80;62.50;;;;;;5020513;28;20400;-21
2022/06/19 08:12:58;;;;;;;2.20;1.35;;;24.80;62.30;;;;;;5011363;28;20053;-22
2022/06/19 08:15:24;;;;;;;2.78;1.45;;;24.80;62.30;;;;;;4993707;28;20054;-23
2022/06/19 08:17:50;;;;;;;1.95;1.05;;;24.80;62.30;;;;;;5010159;28;20183;-21
2022/06/19 08:20:16;;;;;;;1.75;1.25;;;24.70;62.10;;;;;;5023292;28;20064;-22
2022/06/19 08:22:42;;;;;;;2.53;1.17;;;24.80;62.10;;;;;;5015787;28;20049;-22
2022/06/19 08:25:08;;;;;;;2.20;1.05;;;24.80;61.90;;;;;;5019348;28;20046;-23
2022/06/19 08:27:40;;;;;;;2.17;1.20;;;24.70;61.90;;;;;;5026912;28;20073;-22
2022/06/19 08:30:07;;;;;;;2.70;1.30;;;24.70;62.10;;;;;;5018577;28;20050;-21
2022/06/19 08:32:32;;;;;;;2.10;1.13;;;24.70;61.80;;;;;;5023559;28;20060;-22
2022/06/19 08:34:58;;;;;;;2.00;1.40;;;24.70;61.90;;;;;;5021085;28;20050;-20
2022/06/19 08:37:23;;;;;;;2.25;1.33;;;24.70;61.90;;;;;;5025209;28;20053;-22
2022/06/19 08:39:49;;;;;;;2.45;1.23;;;24.80;62.10;;;;;;5020101;28;20050;-25
2022/06/19 08:42:51;;;;;;;2.70;1.42;;;24.70;61.60;;;;;;5021039;28;20057;-22
2022/06/19 08:45:37;;;;;;;1.75;1.00;;;24.70;61.90;;;;;;5021917;28;20053;-22
2022/06/19 08:48:07;;;;;;;1.92;1.00;;;24.70;61.80;;;;;;5023781;28;20525;-22
2022/06/19 08:50:53;;;;;;;2.45;1.25;;;24.60;62.00;;;;;;5011252;28;20049;-22
2022/06/19 08:53:56;;;;;;;1.95;1.00;;;24.70;61.90;;;;;;5028099;28;20080;-22
2022/06/19 08:56:25;;;;;;;3.42;1.38;;;24.70;62.00;;;;;;5026125;28;21098;-22
2022/06/19 08:59:06;;;;;;;2.55;1.08;;;24.70;62.10;;;;;;5022155;28;20046;-22
2022/06/19 09:01:40;;;;;;;2.63;1.38;;;24.70;62.30;;;;;;5026067;28;20141;-22
2022/06/19 09:07:21;;;;;;;2.78;1.30;;;24.60;62.10;;;;;;5025159;28;20064;-21
2022/06/19 09:10:08;;;;;;;2.30;1.58;;;24.60;62.80;;;;;;5021860;28;20041;-22
2022/06/19 09:12:55;;;;;;;4.25;1.40;;;24.30;62.90;;;;;;5024085;28;20045;-21
2022/06/19 09:15:28;;;;;;;2.58;1.25;;;24.20;63.20;;;;;;5017682;28;20049;-22
2022/06/19 09:18:00;;;;;;;2.92;1.40;;;23.90;63.80;;;;;;5007651;28;20049;-21
2022/06/19 09:20:45;;;;;;;2.42;1.40;;;23.90;63.80;;;;;;5023224;28;20583;-22
2022/06/19 09:23:11;;;;;;;2.90;1.60;;;23.90;63.40;;;;;;5019560;28;20041;-22
2022/06/19 09:25:48;;;;;;;3.88;1.75;;;23.90;63.60;;;;;;5025965;28;20119;-21
2022/06/19 09:28:16;;;;;;;3.00;1.38;;;23.90;63.50;;;;;;5026356;28;20053;-21
2022/06/19 09:30:49;;;;;;;4.20;1.83;;;23.70;64.00;;;;;;5019756;28;20064;-23
2022/06/19 09:33:15;;;;;;;3.55;2.10;;;23.50;65.00;;;;;;5025686;28;20533;-21
2022/06/19 09:35:48;;;;;;;4.72;2.03;;;23.50;64.50;;;;;;5028805;28;20411;-22
2022/06/19 09:38:55;;;;;;;2.92;1.55;;;23.40;64.40;;;;;;5022562;28;20053;-22
2022/06/19 09:41:24;;;;;;;4.47;1.52;;;23.20;64.80;;;;;;5001630;28;20045;-21
2022/06/19 09:44:10;;;;;;;3.10;1.38;;;23.10;65.20;;;;;;5010953;28;20049;-21
2022/06/19 09:47:06;;;;;;;5.60;1.98;;;23.00;65.40;;;;;;5018033;28;20049;-22
2022/06/19 09:49:44;;;;;;;5.85;1.60;;;23.00;65.90;;;;;;4993395;28;20511;-21
2022/06/19 09:52:13;;;;;;;3.38;1.40;;;22.90;65.60;;;;;;5028120;28;20048;-21
2022/06/19 09:54:42;;;;;;;2.70;1.33;;;22.80;65.80;;;;;;4991783;28;20058;-22
2022/06/19 09:57:24;;;;;;;6.13;1.85;;;22.90;66.10;;;;;;5023913;28;20049;-22
2022/06/19 10:00:00;;;;;;;5.60;1.83;;;22.90;65.90;;;;;;5026999;28;20088;-21
2022/06/19 10:02:42;;;;;;;2.45;1.80;;;22.80;66.10;;;;;;5023820;28;20080;-24
2022/06/19 10:05:40;;;;;;;2.97;1.50;;;22.80;66.10;;;;;;5020423;28;20041;-21
2022/06/19 10:08:23;;;;;;;2.53;1.23;;;22.80;66.40;;;;;;5025118;28;20072;-21
2022/06/19 10:11:16;;;;;;;4.63;1.42;;;22.80;66.50;;;;;;5023028;28;20060;-21
2022/06/19 10:13:59;;;;;;;5.68;1.67;;;22.80;66.40;;;;;;5013984;28;20428;-21
2022/06/19 10:16:44;;;;;;;5.35;1.50;;;22.80;67.40;;;;;;5006694;28;20050;-21
2022/06/19 10:19:32;;;;;;;1.95;1.38;;;22.80;67.60;;;;;;5020185;28;20038;-22
2022/06/19 10:22:15;;;;;;;2.40;1.40;;;22.70;68.20;;;;;;5023123;28;20596;-22
2022/06/19 10:25:15;;;;;;;2.10;1.23;;;22.60;68.90;;;;;;5024668;28;20044;-21
2022/06/19 10:28:06;;;;;;;2.60;1.10;;;22.70;69.20;;;;;;5029343;28;20037;-21
2022/06/19 10:30:37;;;;;;;5.65;2.03;;;22.80;69.90;;;;;;5027030;28;20038;-21
2022/06/19 10:33:16;;;;;;;2.85;1.20;;;22.70;70.70;;;;;;5020232;28;20137;-21
2022/06/19 10:36:02;;;;;;;2.20;1.30;;;22.80;71.10;;;;;;5025001;28;20493;-21
2022/06/19 10:38:44;;;;;;;2.97;1.20;;;22.80;83.10;;;;;;5027803;28;20065;-22
2022/06/19 10:44:24;;;;;;;2.45;1.60;;;22.90;80.50;;;;;;5028230;28;20048;-21
2022/06/19 10:47:18;;;;;;;3.05;1.30;;;22.80;79.80;;;;;;5020284;28;20041;-21
2022/06/19 10:49:53;;;;;;;4.28;1.88;;;22.90;79.30;;;;;;5019902;28;20041;-22
2022/06/19 10:52:45;;;;;;;8.30;3.45;;;22.90;78.60;;;;;;5028169;28;20074;-22
2022/06/19 10:55:20;;;;;;;4.38;2.10;;;22.90;78.10;;;;;;5012055;28;20103;-21
2022/06/19 10:57:59;;;;;;;3.53;1.95;;;22.90;77.70;;;;;;5017029;28;20136;-21
2022/06/19 11:00:25;;;;;;;5.57;1.67;;;23.00;77.20;;;;;;5027509;28;20053;-22
2022/06/19 11:05:51;;;;;;;3.45;1.48;;;23.20;76.90;;;;;;5029621;28;20107;-22
2022/06/19 11:08:18;;;;;;;4.13;1.90;;;23.30;75.40;;;;;;5025978;28;20492;-23
2022/06/19 11:10:47;;;;;;;3.15;2.05;;;23.20;75.60;;;;;;5007537;28;20506;-21
2022/06/19 11:13:13;;;;;;;3.90;1.63;;;23.30;74.50;;;;;;5023953;28;20140;-21
2022/06/19 11:15:45;;;;;;;3.97;1.30;;;23.30;75.10;;;;;;5023182;28;20140;-21
2022/06/19 11:18:16;;;;;;;3.75;1.75;;;23.20;74.50;;;;;;5021173;28;20052;-22
2022/06/19 11:21:01;;;;;;;2.20;1.58;;;23.30;74.80;;;;;;5025282;28;20052;-21
2022/06/19 11:23:34;;;;;;;4.47;1.80;;;23.30;74.40;;;;;;5018675;28;20080;-21
2022/06/19 11:26:14;;;;;;;3.88;1.33;;;23.20;75.10;;;;;;5026662;28;20095;-21
2022/06/19 11:29:13;;;;;;;3.20;1.63;;;23.20;75.10;;;;;;5022002;28;20049;-21
2022/06/19 11:32:01;;;;;;;3.53;1.40;;;23.30;74.10;;;;;;5020612;28;20564;-21
2022/06/19 11:34:47;;;;;;;2.03;1.40;;;23.40;74.50;;;;;;5019802;28;20119;-21
2022/06/19 11:37:16;;;;;;;2.00;1.23;;;23.40;74.20;;;;;;5023649;28;20064;-22
2022/06/19 11:39:46;;;;;;;1.80;1.20;;;23.30;74.00;;;;;;5023424;28;20041;-21
2022/06/19 11:42:35;;;;;;;4.40;1.75;;;23.40;73.80;;;;;;5008262;28;20042;-21
2022/06/19 11:45:03;;;;;;;4.25;1.90;;;23.30;74.10;;;;;;5021853;28;20049;-22
2022/06/19 11:47:40;;;;;;;3.53;2.00;;;23.30;74.00;;;;;;5019676;28;20048;-21
2022/06/19 11:50:10;;;;;;;3.72;1.38;;;23.20;74.50;;;;;;5021456;28;20034;-21
2022/06/19 11:52:35;;;;;;;4.22;2.05;;;23.30;74.30;;;;;;5029582;28;20095;-21
2022/06/19 11:55:01;;;;;;;5.75;1.83;;;23.20;74.20;;;;;;5005802;28;20045;-21
2022/06/19 11:57:28;;;;;;;4.28;2.00;;;23.30;73.70;;;;;;5006579;28;20041;-21
2022/06/19 11:59:56;;;;;;;2.83;1.42;;;23.40;73.20;;;;;;5010427;28;20047;-21
2022/06/19 12:02:36;;;;;;;2.50;1.83;;;23.30;73.10;;;;;;5009672;28;20458;-22
2022/06/19 12:05:06;;;;;;;5.57;1.70;;;23.30;72.80;;;;;;5020600;28;20041;-22
2022/06/19 12:07:34;;;;;;;2.70;1.50;;;23.40;73.00;;;;;;5026946;28;20053;-21
2022/06/19 12:10:05;;;;;;;3.42;1.63;;;23.40;73.50;;;;;;5030819;28;20095;-22
2022/06/19 12:12:32;;;;;;;2.03;1.67;;;23.40;73.50;;;;;;5025616;28;20049;-22
2022/06/19 12:15:12;;;;;;;3.53;1.58;;;23.40;73.20;;;;;;5035370;28;20045;-21
2022/06/19 12:17:42;;;;;;;4.55;1.50;;;23.40;74.00;;;;;;5031598;28;20506;-22
2022/06/19 12:20:09;;;;;;;3.13;1.73;;;23.40;73.40;;;;;;5031620;28;20048;-22
2022/06/19 12:22:51;;;;;;;4.20;1.42;;;23.50;73.50;;;;;;5030758;28;20049;-22
2022/06/19 12:25:43;;;;;;;3.13;1.92;;;23.60;73.20;;;;;;5034354;28;20049;-21
2022/06/19 12:28:22;;;;;;;3.63;1.77;;;23.60;73.60;;;;;;5032034;28;20406;-21
2022/06/19 12:31:12;;;;;;;3.83;1.60;;;23.70;74.60;;;;;;5033546;28;20099;-22
2022/06/19 12:34:01;;;;;;;4.30;1.60;;;23.70;74.90;;;;;;4676214;28;9999794;-22
2022/06/19 12:36:32;;;;;;;3.28;1.60;;;23.60;75.10;;;;;;5022482;28;20124;-21
2022/06/19 12:38:58;;;;;;;3.10;1.80;;;23.50;75.60;;;;;;5003595;28;20065;-21
2022/06/19 12:41:34;;;;;;;2.83;1.63;;;23.50;75.50;;;;;;5000856;28;20127;-22
2022/06/19 12:44:34;;;;;;;4.82;1.83;;;23.60;75.50;;;;;;5024203;28;20129;-22
2022/06/19 12:47:21;;;;;;;2.03;1.60;;;23.50;76.20;;;;;;5028976;28;20061;-21
2022/06/19 12:50:04;;;;;;;2.65;1.30;;;23.50;76.60;;;;;;5030420;28;20042;-21
2022/06/19 12:52:39;;;;;;;2.85;1.70;;;23.50;76.50;;;;;;5024673;28;20132;-21
2022/06/19 12:55:42;;;;;;;2.33;1.52;;;23.50;76.40;;;;;;5026909;28;20542;-22
2022/06/19 12:58:47;;;;;;;3.67;1.88;;;23.50;76.60;;;;;;5031176;28;20049;-20
2022/06/19 13:01:28;;;;;;;2.15;1.52;;;23.50;76.70;;;;;;5001930;28;20057;-21
2022/06/19 13:03:54;;;;;;;2.95;2.00;;;23.50;76.70;;;;;;4972855;28;20056;-21
2022/06/19 13:06:48;;;;;;;4.00;2.30;;;23.40;76.80;;;;;;5021972;28;20037;-21
2022/06/19 13:09:21;;;;;;;2.67;1.90;;;23.40;76.90;;;;;;5015202;28;20053;-21
2022/06/19 13:12:09;;;;;;;1.97;1.33;;;23.40;77.10;;;;;;5029588;28;20076;-21
2022/06/19 13:14:43;;;;;;;2.10;1.80;;;23.40;77.10;;;;;;5032638;28;20049;-21
2022/06/19 13:17:29;;;;;;;2.53;1.40;;;23.50;76.90;;;;;;5029639;28;20041;-21
2022/06/19 13:20:13;;;;;;;6.07;1.70;;;23.50;76.40;;;;;;5028629;28;20045;-21